createdAt,value
2019-05-12T00:04:18.710Z,74.09
2019-05-12T00:09:23.985Z,74.28
2019-05-12T00:14:29.138Z,74.25
2019-05-12T00:19:34.237Z,72.62
2019-05-12T00:24:39.376Z,72.26
2019-05-12T00:29:44.596Z,72.11
2019-05-12T00:34:49.665Z,71.28
2019-05-12T00:39:55.227Z,70.70
2019-05-12T00:45:00.371Z,70.04
2019-05-12T00:50:07.834Z,69.94
2019-05-12T00:55:12.485Z,70.40
2019-05-12T01:00:18.046Z,69.38
2019-05-12T01:05:23.023Z,69.52
2019-05-12T01:10:28.809Z,70.01
2019-05-12T01:15:34.033Z,70.75
2019-05-12T01:20:40.433Z,72.36
2019-05-12T01:25:47.812Z,72.63
2019-05-12T01:30:53.404Z,73.12
2019-05-12T01:35:58.829Z,73.95
2019-05-12T01:41:04.081Z,72.80
2019-05-12T01:46:09.226Z,73.02
2019-05-12T01:51:14.799Z,73.84
2019-05-12T01:56:19.862Z,74.03
2019-05-12T02:01:24.928Z,71.26
2019-05-12T02:06:30.064Z,67.72
2019-05-12T02:11:37.839Z,66.02
2019-05-12T02:16:42.304Z,67.20
2019-05-12T02:21:48.774Z,66.61
2019-05-12T02:26:55.092Z,67.07
2019-05-12T02:32:00.381Z,68.80
2019-05-12T02:37:05.773Z,68.57
2019-05-12T02:42:11.359Z,69.87
2019-05-12T02:47:16.519Z,69.64
2019-05-12T02:52:25.037Z,70.83
2019-05-12T02:57:30.802Z,71.55
2019-05-12T03:02:37.592Z,71.75
2019-05-12T03:07:44.976Z,72.25
2019-05-12T03:12:50.120Z,71.91
2019-05-12T03:17:55.101Z,72.03
2019-05-12T03:23:00.175Z,71.98
2019-05-12T03:28:08.903Z,72.42
2019-05-12T03:33:18.902Z,72.31
2019-05-12T03:38:19.052Z,72.69
2019-05-12T03:43:24.532Z,72.64
2019-05-12T03:48:29.884Z,72.45
2019-05-12T03:53:35.665Z,72.48
2019-05-12T03:58:40.932Z,73.16
2019-05-12T04:03:46.091Z,73.36
2019-05-12T04:08:54.447Z,73.78
2019-05-12T04:13:58.769Z,73.92
2019-05-12T04:19:05.356Z,73.93
2019-05-12T04:24:14.093Z,73.53
2019-05-12T04:29:17.762Z,73.74
2019-05-12T04:34:25.088Z,74.03
2019-05-12T04:39:29.947Z,74.21
2019-05-12T04:44:36.193Z,73.87
2019-05-12T04:49:44.966Z,73.30
2019-05-12T04:54:48.908Z,73.51
2019-05-12T04:59:54.481Z,73.07
2019-05-12T05:05:00.721Z,72.59
2019-05-12T05:10:06.007Z,72.33
2019-05-12T05:15:14.383Z,72.76
2019-05-12T05:20:19.535Z,72.59
2019-05-12T05:25:24.700Z,72.14
2019-05-12T05:30:33.574Z,72.12
2019-05-12T05:35:40.028Z,72.21
2019-05-12T05:40:46.797Z,72.64
2019-05-12T05:45:56.097Z,72.34
2019-05-12T05:50:59.929Z,72.07
2019-05-12T05:56:06.284Z,72.11
2019-05-12T06:01:13.766Z,72.01
2019-05-12T06:06:19.039Z,71.66
2019-05-12T06:11:28.387Z,71.84
2019-05-12T06:16:31.061Z,71.02
2019-05-12T06:21:38.487Z,70.29
2019-05-12T06:26:57.084Z,71.25
2019-05-12T06:31:54.271Z,70.62
2019-05-12T06:37:03.103Z,70.91
2019-05-12T06:42:12.359Z,71.21
2019-05-12T06:47:14.416Z,71.40
2019-05-12T06:52:20.041Z,70.45
2019-05-12T06:57:29.141Z,70.89
2019-05-12T07:02:37.026Z,70.16
2019-05-12T07:07:44.399Z,69.16
2019-05-12T07:12:58.922Z,69.89
2019-05-12T07:18:00.509Z,68.56
2019-05-12T07:23:05.677Z,69.37
2019-05-12T07:28:10.973Z,67.45
2019-05-12T07:33:16.161Z,68.35
2019-05-12T07:38:25.933Z,68.28
2019-05-12T07:43:33.647Z,67.98
2019-05-12T07:48:40.402Z,67.41
2019-05-12T07:53:54.485Z,68.37
2019-05-12T07:58:54.796Z,68.24
2019-05-12T08:04:01.235Z,67.90
2019-05-12T08:09:07.616Z,67.39
2019-05-12T08:14:25.058Z,66.37
2019-05-12T08:19:23.874Z,65.67
2019-05-12T08:24:27.802Z,66.39
2019-05-12T08:29:34.231Z,67.21
2019-05-12T08:34:40.373Z,67.00
2019-05-12T08:39:45.536Z,67.02
2019-05-12T08:44:51.111Z,66.41
2019-05-12T08:49:58.813Z,66.22
2019-05-12T08:55:04.292Z,64.34
2019-05-12T09:00:10.383Z,63.79
2019-05-12T09:05:15.910Z,64.31
2019-05-12T09:10:23.409Z,63.92
2019-05-12T09:15:27.987Z,63.09
2019-05-12T09:20:33.236Z,62.53
2019-05-12T09:25:39.299Z,60.05
2019-05-12T09:30:49.352Z,61.69
2019-05-12T09:35:54.037Z,60.92
2019-05-12T09:41:01.422Z,59.02
2019-05-12T09:46:06.507Z,56.38
2019-05-12T09:51:13.324Z,59.71
2019-05-12T09:56:18.689Z,53.03
2019-05-12T10:01:29.279Z,53.65
2019-05-12T10:06:34.883Z,55.82
2019-05-12T10:11:40.133Z,53.62
2019-05-12T10:16:49.739Z,52.95
2019-05-12T10:21:55.203Z,50.75
2019-05-12T10:27:00.332Z,52.26
2019-05-12T10:32:05.912Z,50.94
2019-05-12T10:37:13.281Z,49.89
2019-05-12T10:42:18.243Z,49.93
2019-05-12T10:47:23.978Z,49.71
2019-05-12T10:52:33.964Z,48.72
2019-05-12T10:57:36.537Z,49.34
2019-05-12T11:02:41.788Z,51.09
2019-05-12T11:07:47.045Z,48.62
2019-05-12T11:12:52.535Z,45.90
2019-05-12T11:18:28.655Z,48.25
2019-05-12T11:23:34.453Z,41.75
2019-05-12T11:28:39.829Z,45.53
2019-05-12T11:33:45.154Z,46.78
2019-05-12T11:38:50.807Z,44.52
2019-05-12T11:43:56.749Z,46.42
2019-05-12T11:49:04.265Z,43.67
2019-05-12T11:54:10.831Z,44.10
2019-05-12T11:59:16.306Z,40.88
2019-05-12T12:04:23.550Z,42.32
2019-05-12T12:09:28.938Z,43.03
2019-05-12T12:14:34.522Z,38.69
2019-05-12T12:19:44.649Z,37.69
2019-05-12T12:24:47.585Z,38.77
2019-05-12T12:29:54.415Z,40.72
2019-05-12T12:35:00.957Z,41.15
2019-05-12T12:40:08.415Z,40.43
2019-05-12T12:45:23.791Z,40.58
2019-05-12T12:50:30.764Z,39.78
2019-05-12T12:55:37.944Z,39.44
2019-05-12T13:00:48.007Z,39.35
2019-05-12T13:05:50.729Z,40.27
2019-05-12T13:10:55.976Z,40.91
2019-05-12T13:16:04.103Z,37.81
2019-05-12T13:21:09.087Z,36.04
2019-05-12T13:26:14.411Z,38.75
2019-05-12T13:31:19.987Z,37.38
2019-05-12T13:36:29.572Z,38.44
2019-05-12T13:41:32.993Z,37.22
2019-05-12T13:46:38.548Z,37.65
2019-05-12T13:51:48.289Z,38.41
2019-05-12T13:56:53.401Z,38.37
2019-05-12T14:01:58.141Z,36.91
2019-05-12T14:07:04.047Z,35.58
2019-05-12T14:12:10.754Z,34.56
2019-05-12T14:17:16.328Z,37.12
2019-05-12T14:22:26.262Z,36.36
2019-05-12T14:27:29.591Z,36.77
2019-05-12T14:32:35.313Z,36.08
2019-05-12T14:37:45.677Z,34.89
2019-05-12T14:42:47.846Z,36.18
2019-05-12T14:47:54.087Z,36.38
2019-05-12T14:53:00.640Z,36.63
2019-05-12T14:58:09.310Z,36.15
2019-05-12T15:03:16.140Z,37.92
2019-05-12T15:08:21.486Z,35.04
2019-05-12T15:13:27.286Z,34.88
2019-05-12T15:18:32.838Z,35.13
2019-05-12T15:23:38.108Z,33.84
2019-05-12T15:28:44.131Z,35.82
2019-05-12T15:33:49.421Z,34.64
2019-05-12T15:38:59.021Z,35.15
2019-05-12T15:44:06.521Z,34.13
2019-05-12T15:49:12.627Z,34.10
2019-05-12T15:54:17.973Z,35.21
2019-05-12T15:59:24.024Z,35.24
2019-05-12T16:04:34.684Z,35.06
2019-05-12T16:09:37.141Z,35.45
2019-05-12T16:14:44.213Z,34.74
2019-05-12T16:19:49.529Z,35.79
2019-05-12T16:24:54.762Z,37.60
2019-05-12T16:30:00.131Z,37.01
2019-05-12T16:35:07.491Z,36.27
2019-05-12T16:40:13.829Z,35.75
2019-05-12T16:45:20.053Z,34.37
2019-05-12T16:50:28.040Z,35.39
2019-05-12T16:55:44.755Z,35.59
2019-05-12T17:00:45.240Z,35.24
2019-05-12T17:05:50.043Z,34.22
2019-05-12T17:11:01.231Z,33.24
2019-05-12T17:16:01.544Z,34.34
2019-05-12T17:21:06.910Z,34.83
2019-05-12T17:26:13.890Z,34.74
2019-05-12T17:31:19.353Z,34.96
2019-05-12T17:36:24.813Z,36.57
2019-05-12T17:41:31.429Z,37.39
2019-05-12T17:46:39.726Z,36.43
2019-05-12T17:51:44.541Z,36.06
2019-05-12T17:56:50.425Z,37.09
2019-05-12T18:01:57.446Z,37.98
2019-05-12T18:07:04.387Z,38.37
2019-05-12T18:12:09.995Z,38.75
2019-05-12T18:17:16.264Z,38.34
2019-05-12T18:22:23.587Z,38.75
2019-05-12T18:27:29.122Z,39.08
2019-05-12T18:32:34.387Z,40.19
2019-05-12T18:37:39.633Z,40.13
2019-05-12T18:42:45.848Z,40.34
2019-05-12T18:47:51.095Z,41.31
2019-05-12T18:52:57.183Z,41.71
2019-05-12T18:58:04.357Z,41.48
2019-05-12T19:03:10.140Z,42.26
2019-05-12T19:08:16.310Z,41.85
2019-05-12T19:13:21.926Z,42.50
2019-05-12T19:18:32.459Z,42.96
2019-05-12T19:23:37.622Z,42.62
2019-05-12T19:28:52.526Z,42.55
2019-05-12T19:34:03.127Z,43.08
2019-05-12T19:38:56.265Z,43.73
2019-05-12T19:44:03.946Z,42.79
2019-05-12T19:49:08.757Z,43.97
2019-05-12T19:54:19.359Z,43.78
2019-05-12T19:59:23.644Z,43.85
2019-05-12T20:04:33.669Z,44.38
2019-05-12T20:09:35.845Z,44.19
2019-05-12T20:14:43.362Z,44.12
2019-05-12T20:19:48.212Z,44.58
2019-05-12T20:24:53.789Z,44.93
2019-05-12T20:29:59.099Z,46.33
2019-05-12T20:35:05.248Z,44.95
2019-05-12T20:40:10.412Z,44.97
2019-05-12T20:45:15.764Z,45.51
2019-05-12T20:50:25.942Z,45.18
2019-05-12T20:55:29.997Z,45.16
2019-05-12T21:00:38.861Z,43.70
2019-05-12T21:05:42.626Z,45.17
2019-05-12T21:10:47.957Z,45.14
2019-05-12T21:15:54.232Z,46.21
2019-05-12T21:20:59.504Z,45.31
2019-05-12T21:26:05.087Z,47.23
2019-05-12T21:31:10.262Z,47.40
2019-05-12T21:36:24.128Z,47.33
2019-05-12T21:41:24.582Z,46.88
2019-05-12T21:46:29.917Z,47.55
2019-05-12T21:51:35.097Z,48.15
2019-05-12T21:56:47.516Z,47.80
2019-05-12T22:01:47.991Z,47.68
2019-05-12T22:06:57.225Z,47.57
2019-05-12T22:12:00.017Z,48.24
2019-05-12T22:17:06.944Z,48.17
2019-05-12T22:22:13.585Z,48.49
2019-05-12T22:27:25.804Z,47.91
2019-05-12T22:32:29.548Z,48.20
2019-05-12T22:37:34.967Z,48.89
2019-05-12T22:42:39.751Z,48.01
2019-05-12T22:47:49.133Z,47.75
2019-05-12T22:52:53.315Z,47.64
2019-05-12T22:57:58.600Z,48.75
2019-05-12T23:03:11.662Z,47.89
2019-05-12T23:08:10.972Z,48.17
2019-05-12T23:13:16.128Z,48.19
2019-05-12T23:18:26.901Z,48.03
2019-05-12T23:23:28.925Z,48.05
2019-05-12T23:28:34.125Z,48.15
2019-05-12T23:33:40.297Z,47.60
2019-05-12T23:38:45.871Z,49.13
2019-05-12T23:43:51.030Z,48.98
2019-05-12T23:48:56.276Z,49.44
2019-05-12T23:54:03.625Z,49.56
2019-05-12T23:59:08.339Z,49.50
